createdAt,value
2019-01-25T00:02:16.240Z,39.33
2019-01-25T00:06:21.063Z,37.20
2019-01-25T00:10:25.907Z,37.03
2019-01-25T00:14:30.723Z,38.00
2019-01-25T00:18:35.539Z,40.93
2019-01-25T00:22:40.374Z,40.10
2019-01-25T00:26:45.214Z,39.20
2019-01-25T00:30:50.039Z,36.90
2019-01-25T00:34:54.927Z,38.97
2019-01-25T00:38:59.735Z,41.43
2019-01-25T00:43:04.563Z,38.00
2019-01-25T00:47:09.406Z,41.13
2019-01-25T00:51:15.316Z,40.03
2019-01-25T00:55:20.147Z,38.93
2019-01-25T00:59:24.970Z,37.90
2019-01-25T01:03:29.795Z,37.37
2019-01-25T01:07:34.643Z,39.77
2019-01-25T01:11:39.475Z,37.47
2019-01-25T01:15:45.374Z,36.77
2019-01-25T01:19:51.181Z,38.47
2019-01-25T01:23:56.003Z,37.70
2019-01-25T01:28:00.839Z,37.97
2019-01-25T01:32:05.666Z,39.03
2019-01-25T01:36:10.495Z,38.17
2019-01-25T01:40:22.104Z,37.10
2019-01-25T01:44:24.471Z,36.77
2019-01-25T01:48:29.300Z,37.97
2019-01-25T01:52:34.170Z,39.13
2019-01-25T01:56:39.916Z,38.33
2019-01-25T02:00:44.810Z,38.10
2019-01-25T02:04:49.663Z,36.63
2019-01-25T02:08:54.491Z,36.07
2019-01-25T02:12:59.312Z,36.03
2019-01-25T02:17:04.209Z,38.20
2019-01-25T02:21:09.036Z,39.63
2019-01-25T02:25:14.251Z,38.57
2019-01-25T02:29:19.099Z,38.07
2019-01-25T02:33:23.925Z,40.27
2019-01-25T02:37:30.722Z,39.40
2019-01-25T02:41:35.269Z,38.17
2019-01-25T02:45:40.127Z,38.77
2019-01-25T02:49:46.004Z,39.03
2019-01-25T02:53:50.943Z,38.07
2019-01-25T02:57:55.772Z,39.20
2019-01-25T03:02:00.656Z,40.73
2019-01-25T03:06:05.452Z,41.67
2019-01-25T03:10:15.340Z,39.73
2019-01-25T03:14:20.168Z,42.57
2019-01-25T03:18:24.991Z,38.27
2019-01-25T03:22:29.827Z,38.40
2019-01-25T03:26:34.658Z,40.00
2019-01-25T03:30:39.484Z,39.57
2019-01-25T03:34:44.295Z,37.77
2019-01-25T03:38:49.137Z,37.67
2019-01-25T03:42:54.060Z,38.77
2019-01-25T03:46:58.902Z,40.47
2019-01-25T03:51:03.746Z,37.43
2019-01-25T03:55:10.991Z,38.47
2019-01-25T03:59:15.820Z,40.03
2019-01-25T04:03:20.665Z,37.87
2019-01-25T04:07:25.495Z,38.43
2019-01-25T04:11:30.331Z,40.97
2019-01-25T04:15:35.307Z,37.60
2019-01-25T04:19:40.151Z,40.60
2019-01-25T04:23:44.998Z,40.73
2019-01-25T04:27:49.893Z,39.17
2019-01-25T04:31:55.723Z,42.10
2019-01-25T04:36:00.519Z,41.07
2019-01-25T04:40:08.654Z,41.30
2019-01-25T04:44:13.483Z,41.50
2019-01-25T04:48:18.344Z,42.70
2019-01-25T04:52:23.178Z,40.13
2019-01-25T04:56:29.632Z,41.53
2019-01-25T05:00:34.469Z,43.87
2019-01-25T05:04:39.300Z,40.17
2019-01-25T05:08:44.131Z,41.50
2019-01-25T05:12:53.101Z,42.70
2019-01-25T05:16:58.183Z,41.23
2019-01-25T05:21:03.000Z,42.80
2019-01-25T05:25:07.835Z,42.33
2019-01-25T05:29:12.668Z,39.60
2019-01-25T05:33:17.501Z,45.80
2019-01-25T05:37:41.774Z,42.30
2019-01-25T05:41:48.259Z,42.93
2019-01-25T05:45:53.063Z,43.87
2019-01-25T05:49:57.903Z,44.83
2019-01-25T05:54:02.819Z,44.50
2019-01-25T05:58:09.004Z,44.27
2019-01-25T06:02:13.831Z,41.80
2019-01-25T06:06:18.671Z,44.17
2019-01-25T06:10:23.505Z,42.33
2019-01-25T06:14:28.538Z,40.47
2019-01-25T06:18:33.394Z,39.50
2019-01-25T06:22:39.298Z,43.77
2019-01-25T06:26:47.438Z,44.60
2019-01-25T06:30:52.287Z,40.70
2019-01-25T06:34:57.127Z,42.43
2019-01-25T06:39:02.020Z,37.73
2019-01-25T06:43:07.807Z,46.17
2019-01-25T06:47:12.644Z,42.53
2019-01-25T06:51:17.447Z,39.63
2019-01-25T06:55:22.285Z,43.03
2019-01-25T06:59:27.199Z,44.37
2019-01-25T07:03:32.039Z,42.60
2019-01-25T07:07:38.115Z,42.37
2019-01-25T07:11:42.942Z,42.60
2019-01-25T07:15:47.771Z,42.10
2019-01-25T07:19:52.605Z,44.53
2019-01-25T07:23:57.503Z,42.13
2019-01-25T07:28:02.440Z,43.13
2019-01-25T07:32:07.250Z,42.00
2019-01-25T07:36:12.414Z,41.43
2019-01-25T07:40:17.216Z,41.40
2019-01-25T07:44:22.070Z,41.23
2019-01-25T07:48:26.903Z,42.87
2019-01-25T07:52:31.703Z,41.33
2019-01-25T07:56:36.553Z,42.63
2019-01-25T08:00:41.363Z,41.50
2019-01-25T08:04:46.315Z,40.73
2019-01-25T08:08:51.139Z,42.00
2019-01-25T08:12:56.016Z,41.63
2019-01-25T08:17:00.800Z,43.53
2019-01-25T08:21:05.651Z,41.67
2019-01-25T08:25:11.569Z,42.47
2019-01-25T08:29:16.378Z,42.60
2019-01-25T08:33:21.373Z,42.43
2019-01-25T08:37:26.335Z,40.00
2019-01-25T08:41:31.143Z,42.47
2019-01-25T08:45:36.025Z,41.10
2019-01-25T08:49:40.823Z,40.33
2019-01-25T08:53:45.655Z,39.97
2019-01-25T08:57:50.588Z,42.63
2019-01-25T09:01:55.392Z,41.57
2019-01-25T09:06:00.219Z,41.10
2019-01-25T09:10:08.308Z,44.07
2019-01-25T09:14:13.209Z,41.20
2019-01-25T09:18:18.079Z,43.00
2019-01-25T09:22:22.942Z,41.30
2019-01-25T09:26:27.766Z,40.53
2019-01-25T09:30:32.605Z,39.47
2019-01-25T09:34:37.486Z,43.37
2019-01-25T09:38:42.328Z,35.67
2019-01-25T09:42:47.129Z,37.00
2019-01-25T09:46:53.453Z,35.37
2019-01-25T09:50:58.591Z,40.40
2019-01-25T09:55:04.451Z,38.47
2019-01-25T09:59:09.283Z,37.00
2019-01-25T10:03:14.086Z,39.47
2019-01-25T10:07:19.450Z,39.30
2019-01-25T10:11:24.347Z,38.00
2019-01-25T10:15:30.120Z,36.10
2019-01-25T10:19:35.203Z,36.80
2019-01-25T10:23:40.483Z,36.07
2019-01-25T10:27:47.071Z,37.00
2019-01-25T10:31:51.767Z,36.87
2019-01-25T10:35:56.635Z,38.50
2019-01-25T10:40:02.707Z,38.87
2019-01-25T10:44:07.547Z,37.63
2019-01-25T10:48:12.356Z,36.57
2019-01-25T10:52:18.155Z,35.20
2019-01-25T10:56:22.989Z,33.77
2019-01-25T11:00:27.819Z,35.57
2019-01-25T11:04:32.640Z,35.93
2019-01-25T11:08:37.487Z,37.40
2019-01-25T11:12:43.175Z,35.43
2019-01-25T11:16:48.048Z,37.60
2019-01-25T11:20:52.881Z,38.23
2019-01-25T11:24:57.746Z,38.30
2019-01-25T11:29:02.551Z,36.90
2019-01-25T11:33:07.376Z,37.93
2019-01-25T11:37:12.208Z,39.00
2019-01-25T11:41:17.020Z,38.00
2019-01-25T11:45:21.899Z,38.13
2019-01-25T11:49:26.728Z,37.03
2019-01-25T11:53:31.542Z,35.33
2019-01-25T11:57:36.363Z,38.10
2019-01-25T12:01:41.194Z,34.03
2019-01-25T12:05:46.023Z,36.43
2019-01-25T12:09:50.935Z,37.57
2019-01-25T12:13:55.750Z,40.97
2019-01-25T12:18:00.619Z,37.90
2019-01-25T12:22:05.455Z,41.63
2019-01-25T12:26:10.299Z,39.23
2019-01-25T12:30:37.407Z,43.13
2019-01-25T12:34:38.787Z,43.37
2019-01-25T12:38:43.667Z,45.00
2019-01-25T12:42:48.507Z,44.30
2019-01-25T12:46:53.334Z,44.40
2019-01-25T12:51:01.571Z,43.00
2019-01-25T12:55:08.815Z,48.10
2019-01-25T12:59:13.720Z,45.63
2019-01-25T13:03:18.569Z,48.47
2019-01-25T13:07:23.485Z,47.00
2019-01-25T13:11:28.352Z,41.80
2019-01-25T13:15:33.163Z,48.67
2019-01-25T13:19:38.062Z,48.83
2019-01-25T13:23:43.593Z,48.20
2019-01-25T13:27:48.507Z,48.30
2019-01-25T13:31:53.542Z,49.13
2019-01-25T13:35:58.695Z,48.63
2019-01-25T13:40:04.479Z,48.53
2019-01-25T13:44:09.938Z,50.47
2019-01-25T13:48:16.178Z,48.90
2019-01-25T13:52:21.019Z,49.63
2019-01-25T13:56:26.748Z,48.20
2019-01-25T14:00:33.632Z,49.37
2019-01-25T14:04:38.415Z,47.60
2019-01-25T14:08:43.352Z,51.77
2019-01-25T14:12:48.317Z,50.50
2019-01-25T14:16:53.280Z,52.77
2019-01-25T14:20:58.284Z,51.03
2019-01-25T14:25:03.987Z,51.73
2019-01-25T14:29:09.447Z,50.63
2019-01-25T14:33:15.002Z,51.43
2019-01-25T14:37:20.380Z,51.20
2019-01-25T14:41:25.215Z,50.40
2019-01-25T14:45:31.409Z,52.90
2019-01-25T14:49:38.078Z,49.83
2019-01-25T14:53:43.036Z,51.67
2019-01-25T14:57:48.069Z,54.53
2019-01-25T15:01:53.850Z,52.57
2019-01-25T15:05:58.857Z,56.33
2019-01-25T15:10:06.991Z,57.47
2019-01-25T15:14:13.005Z,49.97
2019-01-25T15:18:19.050Z,49.20
2019-01-25T15:22:30.812Z,49.40
2019-01-25T15:26:36.342Z,41.77
2019-01-25T15:30:41.944Z,37.53
2019-01-25T15:34:47.776Z,36.20
2019-01-25T15:38:53.388Z,36.50
2019-01-25T15:42:59.283Z,29.20
2019-01-25T15:47:04.652Z,30.63
2019-01-25T15:51:10.211Z,27.80
2019-01-25T15:55:15.955Z,22.77
2019-01-25T15:59:22.327Z,32.60
2019-01-25T16:03:41.171Z,30.19
2019-01-25T16:07:46.968Z,26.97
2019-01-25T16:11:53.190Z,23.63
2019-01-25T16:15:59.183Z,30.10
2019-01-25T16:20:06.220Z,30.63
2019-01-25T16:24:11.959Z,21.33
2019-01-25T16:28:17.791Z,25.10
2019-01-25T16:32:23.680Z,21.93
2019-01-25T16:36:29.320Z,27.20
2019-01-25T16:40:35.196Z,21.87
2019-01-25T16:44:41.163Z,28.43
2019-01-25T16:48:46.786Z,24.17
2019-01-25T16:52:52.374Z,22.40
2019-01-25T16:56:57.846Z,24.13
2019-01-25T17:01:03.593Z,25.53
2019-01-25T17:05:09.979Z,24.97
2019-01-25T17:09:14.810Z,25.30
2019-01-25T17:13:19.651Z,25.70
2019-01-25T17:17:24.486Z,24.53
2019-01-25T17:21:29.292Z,24.60
2019-01-25T17:25:34.121Z,25.60
2019-01-25T17:29:40.205Z,23.93
2019-01-25T17:33:46.322Z,24.93
2019-01-25T17:37:52.694Z,25.27
2019-01-25T17:41:58.476Z,24.13
2019-01-25T17:46:04.511Z,25.90
2019-01-25T17:50:12.313Z,27.00
2019-01-25T17:54:18.407Z,25.83
2019-01-25T17:58:24.483Z,24.57
2019-01-25T18:02:30.456Z,25.83
2019-01-25T18:06:36.275Z,25.30
2019-01-25T18:10:41.835Z,28.17
2019-01-25T18:14:49.382Z,24.47
2019-01-25T18:18:55.635Z,28.30
2019-01-25T18:23:02.448Z,25.20
2019-01-25T18:27:08.375Z,25.17
2019-01-25T18:31:16.750Z,20.53
2019-01-25T18:35:22.708Z,26.33
2019-01-25T18:39:28.632Z,18.13
2019-01-25T18:43:34.723Z,24.87
2019-01-25T18:47:40.644Z,26.73
2019-01-25T18:51:48.250Z,25.33
2019-01-25T18:55:54.323Z,26.70
2019-01-25T19:00:00.289Z,26.50
2019-01-25T19:04:06.331Z,25.47
2019-01-25T19:08:12.396Z,24.73
2019-01-25T19:12:18.565Z,27.03
2019-01-25T19:16:25.155Z,28.47
2019-01-25T19:20:31.791Z,27.67
2019-01-25T19:24:37.955Z,22.37
2019-01-25T19:28:44.292Z,20.83
2019-01-25T19:32:50.808Z,25.43
2019-01-25T19:36:58.527Z,24.27
2019-01-25T19:41:04.671Z,24.70
2019-01-25T19:45:12.237Z,25.70
2019-01-25T19:49:19.008Z,29.03
2019-01-25T19:53:25.563Z,26.20
2019-01-25T19:57:31.902Z,24.20
2019-01-25T20:01:38.149Z,23.87
2019-01-25T20:05:44.468Z,24.37
2019-01-25T20:09:51.147Z,24.40
2019-01-25T20:13:57.338Z,23.77
2019-01-25T20:18:04.057Z,25.17
2019-01-25T20:22:10.332Z,22.40
2019-01-25T20:26:16.535Z,19.10
2019-01-25T20:30:27.558Z,24.67
2019-01-25T20:34:33.486Z,19.63
2019-01-25T20:38:39.847Z,16.27
2019-01-25T20:42:46.442Z,17.83
2019-01-25T20:46:52.518Z,22.20
2019-01-25T20:50:58.720Z,17.60
2019-01-25T20:55:06.504Z,20.73
2019-01-25T20:59:12.683Z,21.43
2019-01-25T21:03:19.031Z,20.87
2019-01-25T21:07:25.249Z,19.87
2019-01-25T21:11:31.723Z,19.60
2019-01-25T21:15:38.303Z,22.80
2019-01-25T21:19:44.283Z,16.57
2019-01-25T21:23:50.833Z,18.60
2019-01-25T21:27:57.162Z,20.47
2019-01-25T21:32:03.113Z,20.53
2019-01-25T21:36:09.167Z,24.00
2019-01-25T21:40:17.069Z,21.40
2019-01-25T21:44:23.332Z,21.50
2019-01-25T21:48:29.472Z,20.43
2019-01-25T21:52:35.360Z,22.03
2019-01-25T21:56:41.561Z,15.93
2019-01-25T22:00:47.431Z,22.83
2019-01-25T22:04:53.103Z,23.57
2019-01-25T22:08:59.855Z,21.57
2019-01-25T22:13:05.630Z,18.33
2019-01-25T22:17:12.598Z,22.67
2019-01-25T22:21:17.978Z,22.93
2019-01-25T22:25:23.943Z,25.53
2019-01-25T22:29:29.380Z,26.60
2019-01-25T22:33:34.782Z,24.00
2019-01-25T22:37:39.760Z,27.20
2019-01-25T22:41:44.671Z,25.43
2019-01-25T22:45:58.354Z,27.13
2019-01-25T22:49:57.942Z,25.90
2019-01-25T22:54:02.776Z,25.93
2019-01-25T22:58:07.588Z,26.90
2019-01-25T23:02:12.418Z,22.93
2019-01-25T23:06:32.330Z,24.30
2019-01-25T23:10:37.159Z,25.10
2019-01-25T23:14:42.030Z,29.53
2019-01-25T23:18:46.860Z,27.80
2019-01-25T23:22:51.702Z,28.23
2019-01-25T23:26:56.538Z,24.90
2019-01-25T23:31:01.386Z,28.83
2019-01-25T23:35:06.219Z,30.60
2019-01-25T23:39:11.220Z,23.33
2019-01-25T23:43:16.042Z,25.27
2019-01-25T23:47:20.895Z,25.57
2019-01-25T23:51:25.721Z,24.70
2019-01-25T23:55:30.564Z,19.17
2019-01-25T23:59:35.492Z,25.97
